createdAt,value
2018-09-30T00:00:58.914Z,100745.00
2018-09-30T00:03:26.565Z,100747.00
2018-09-30T00:05:54.233Z,100740.00
2018-09-30T00:08:21.918Z,100744.00
2018-09-30T00:10:49.833Z,100739.00
2018-09-30T00:13:17.429Z,100732.00
2018-09-30T00:15:45.107Z,100734.00
2018-09-30T00:18:12.774Z,100731.00
2018-09-30T00:20:40.476Z,100735.00
2018-09-30T00:23:08.133Z,100739.00
2018-09-30T00:25:41.976Z,100732.00
2018-09-30T00:28:09.663Z,100724.00
2018-09-30T00:30:37.353Z,100728.00
2018-09-30T00:33:05.294Z,100728.00
2018-09-30T00:35:32.933Z,100721.00
2018-09-30T00:38:00.926Z,100718.00
2018-09-30T00:40:28.566Z,100720.00
2018-09-30T00:42:56.214Z,100718.00
2018-09-30T00:45:23.927Z,100721.00
2018-09-30T00:47:51.608Z,100719.00
2018-09-30T00:50:19.265Z,100714.00
2018-09-30T00:52:47.265Z,100704.00
2018-09-30T00:55:14.961Z,100706.00
2018-09-30T00:57:42.562Z,100708.00
2018-09-30T01:00:10.467Z,100698.00
2018-09-30T01:02:38.109Z,100699.00
2018-09-30T01:05:05.790Z,100693.00
2018-09-30T01:07:33.673Z,100695.00
2018-09-30T01:10:01.356Z,100696.00
2018-09-30T01:12:28.967Z,100691.00
2018-09-30T01:14:56.830Z,100692.00
2018-09-30T01:17:24.518Z,100690.00
2018-09-30T01:19:52.152Z,100687.00
2018-09-30T01:22:20.265Z,100684.00
2018-09-30T01:24:47.909Z,100685.00
2018-09-30T01:27:15.551Z,100681.00
2018-09-30T01:29:43.497Z,100679.00
2018-09-30T01:32:11.581Z,100679.00
2018-09-30T01:34:39.238Z,100678.00
2018-09-30T01:37:06.925Z,100682.00
2018-09-30T01:39:34.885Z,100678.00
2018-09-30T01:42:25.869Z,100672.00
2018-09-30T01:44:53.729Z,100674.00
2018-09-30T01:47:21.466Z,100664.00
2018-09-30T01:49:55.857Z,100660.00
2018-09-30T01:52:41.555Z,100656.00
2018-09-30T01:55:38.075Z,100653.00
2018-09-30T01:58:06.384Z,100653.00
2018-09-30T02:00:34.061Z,100653.00
2018-09-30T02:03:01.745Z,100656.00
2018-09-30T02:05:29.409Z,100652.00
2018-09-30T02:07:57.046Z,100649.00
2018-09-30T02:10:24.953Z,100645.00
2018-09-30T02:12:52.545Z,100651.00
2018-09-30T02:15:20.173Z,100643.00
2018-09-30T02:17:48.163Z,100644.00
2018-09-30T02:20:15.782Z,100641.00
2018-09-30T02:22:43.481Z,100640.00
2018-09-30T02:25:11.364Z,100638.00
2018-09-30T02:27:39.178Z,100635.00
2018-09-30T02:30:06.836Z,100635.00
2018-09-30T02:32:34.772Z,100627.00
2018-09-30T02:35:02.427Z,100632.00
2018-09-30T02:37:30.090Z,100627.00
2018-09-30T02:39:57.797Z,100626.00
2018-09-30T02:42:25.426Z,100620.00
2018-09-30T02:44:53.137Z,100624.00
2018-09-30T02:47:20.987Z,100617.00
2018-09-30T02:49:48.673Z,100618.00
2018-09-30T02:52:16.346Z,100615.00
2018-09-30T02:54:44.209Z,100618.00
2018-09-30T02:57:11.842Z,100609.00
2018-09-30T02:59:39.844Z,100614.00
2018-09-30T03:02:07.606Z,100611.00
2018-09-30T03:04:35.265Z,100607.00
2018-09-30T03:07:08.809Z,100608.00
2018-09-30T03:09:39.340Z,100606.00
2018-09-30T03:12:07.324Z,100602.00
2018-09-30T03:14:34.964Z,100604.00
2018-09-30T03:17:02.893Z,100606.00
2018-09-30T03:19:30.554Z,100605.00
2018-09-30T03:21:58.197Z,100600.00
2018-09-30T03:24:25.889Z,100597.00
2018-09-30T03:26:53.829Z,100591.00
2018-09-30T03:29:21.491Z,100585.00
2018-09-30T03:31:49.189Z,100592.00
2018-09-30T03:34:16.861Z,100587.00
2018-09-30T03:36:44.501Z,100589.00
2018-09-30T03:39:12.201Z,100587.00
2018-09-30T03:41:39.846Z,100577.00
2018-09-30T03:44:07.516Z,100578.00
2018-09-30T03:46:35.204Z,100574.00
2018-09-30T03:49:02.882Z,100572.00
2018-09-30T03:51:30.556Z,100575.00
2018-09-30T03:53:58.230Z,100576.00
2018-09-30T03:56:25.900Z,100584.00
2018-09-30T03:58:53.878Z,100578.00
2018-09-30T04:01:21.537Z,100578.00
2018-09-30T04:03:49.817Z,100570.00
2018-09-30T04:06:17.724Z,100561.00
2018-09-30T04:08:45.383Z,100557.00
2018-09-30T04:11:13.357Z,100556.00
2018-09-30T04:13:40.990Z,100555.00
2018-09-30T04:16:08.703Z,100552.00
2018-09-30T04:18:37.098Z,100549.00
2018-09-30T04:21:04.737Z,100547.00
2018-09-30T04:23:32.417Z,100540.00
2018-09-30T04:26:00.280Z,100544.00
2018-09-30T04:28:35.207Z,100549.00
2018-09-30T04:31:09.469Z,100546.00
2018-09-30T04:33:37.133Z,100546.00
2018-09-30T04:36:04.862Z,100541.00
2018-09-30T04:38:32.569Z,100536.00
2018-09-30T04:41:00.214Z,100539.00
2018-09-30T04:43:27.828Z,100539.00
2018-09-30T04:45:55.487Z,100540.00
2018-09-30T04:48:23.121Z,100540.00
2018-09-30T04:50:50.857Z,100535.00
2018-09-30T04:53:18.646Z,100539.00
2018-09-30T04:55:47.157Z,100543.00
2018-09-30T04:58:14.805Z,100539.00
2018-09-30T05:00:42.466Z,100536.00
2018-09-30T05:03:10.104Z,100533.00
2018-09-30T05:05:37.759Z,100529.00
2018-09-30T05:08:05.667Z,100534.00
2018-09-30T05:10:33.321Z,100525.00
2018-09-30T05:13:01.479Z,100524.00
2018-09-30T05:15:29.126Z,100521.00
2018-09-30T05:17:56.777Z,100528.00
2018-09-30T05:20:24.727Z,100519.00
2018-09-30T05:22:52.340Z,100517.00
2018-09-30T05:25:20.011Z,100519.00
2018-09-30T05:27:47.733Z,100517.00
2018-09-30T05:30:15.445Z,100521.00
2018-09-30T05:32:43.225Z,100524.00
2018-09-30T05:35:11.014Z,100518.00
2018-09-30T05:37:38.663Z,100518.00
2018-09-30T05:40:06.309Z,100512.00
2018-09-30T05:42:34.537Z,100513.00
2018-09-30T05:45:02.189Z,100514.00
2018-09-30T05:47:29.816Z,100523.00
2018-09-30T05:49:57.734Z,100517.00
2018-09-30T05:52:25.625Z,100515.00
2018-09-30T05:54:53.186Z,100514.00
2018-09-30T05:57:20.853Z,100511.00
2018-09-30T05:59:48.711Z,100507.00
2018-09-30T06:02:16.292Z,100511.00
2018-09-30T06:04:43.907Z,100512.00
2018-09-30T06:07:12.029Z,100514.00
2018-09-30T06:09:39.802Z,100501.00
2018-09-30T06:12:07.430Z,100501.00
2018-09-30T06:14:40.329Z,100506.00
2018-09-30T06:17:08.003Z,100499.00
2018-09-30T06:19:36.238Z,100498.00
2018-09-30T06:22:04.155Z,100498.00
2018-09-30T06:24:31.701Z,100494.00
2018-09-30T06:27:00.062Z,100493.00
2018-09-30T06:29:27.771Z,100486.00
2018-09-30T06:31:55.399Z,100483.00
2018-09-30T06:34:23.340Z,100480.00
2018-09-30T06:36:50.897Z,100479.00
2018-09-30T06:39:18.462Z,100476.00
2018-09-30T06:41:46.729Z,100466.00
2018-09-30T06:44:14.355Z,100470.00
2018-09-30T06:46:42.132Z,100459.00
2018-09-30T06:49:10.150Z,100462.00
2018-09-30T06:51:37.927Z,100467.00
2018-09-30T06:54:05.571Z,100458.00
2018-09-30T06:56:33.214Z,100465.00
2018-09-30T06:59:03.602Z,100466.00
2018-09-30T07:01:31.657Z,100464.00
2018-09-30T07:03:59.240Z,100469.00
2018-09-30T07:06:26.890Z,100463.00
2018-09-30T07:08:54.690Z,100462.00
2018-09-30T07:11:22.262Z,100458.00
2018-09-30T07:13:50.017Z,100457.00
2018-09-30T07:16:17.993Z,100459.00
2018-09-30T07:18:45.530Z,100450.00
2018-09-30T07:21:13.096Z,100444.00
2018-09-30T07:23:41.302Z,100452.00
2018-09-30T07:26:08.866Z,100452.00
2018-09-30T07:28:36.405Z,100451.00
2018-09-30T07:31:03.960Z,100446.00
2018-09-30T07:33:31.506Z,100449.00
2018-09-30T07:35:59.043Z,100451.00
2018-09-30T07:38:26.623Z,100446.00
2018-09-30T07:40:54.121Z,100446.00
2018-09-30T07:43:21.677Z,100446.00
2018-09-30T07:45:49.782Z,100448.00
2018-09-30T07:48:17.329Z,100444.00
2018-09-30T07:50:44.862Z,100442.00
2018-09-30T07:53:12.978Z,100441.00
2018-09-30T07:55:40.578Z,100435.00
2018-09-30T07:58:08.099Z,100436.00
2018-09-30T08:00:43.310Z,100426.00
2018-09-30T08:03:10.877Z,100431.00
2018-09-30T08:05:38.387Z,100422.00
2018-09-30T08:08:06.362Z,100419.00
2018-09-30T08:10:33.949Z,100413.00
2018-09-30T08:13:01.515Z,100411.00
2018-09-30T08:15:29.302Z,100411.00
2018-09-30T08:17:57.685Z,100408.00
2018-09-30T08:20:25.187Z,100406.00
2018-09-30T08:22:53.067Z,100405.00
2018-09-30T08:25:20.569Z,100404.00
2018-09-30T08:27:48.050Z,100403.00
2018-09-30T08:30:15.641Z,100400.00
2018-09-30T08:32:50.127Z,100397.00
2018-09-30T08:35:17.877Z,100393.00
2018-09-30T08:37:51.110Z,100389.00
2018-09-30T08:40:25.227Z,100388.00
2018-09-30T08:42:54.785Z,100386.00
2018-09-30T08:45:22.314Z,100393.00
2018-09-30T08:47:50.519Z,100384.00
2018-09-30T08:50:18.046Z,100389.00
2018-09-30T08:52:52.706Z,100387.00
2018-09-30T08:55:20.301Z,100389.00
2018-09-30T08:57:47.926Z,100389.00
2018-09-30T09:00:15.710Z,100387.00
2018-09-30T09:02:43.229Z,100377.00
2018-09-30T09:05:11.047Z,100373.00
2018-09-30T09:07:38.546Z,100368.00
2018-09-30T09:10:06.372Z,100370.00
2018-09-30T09:12:33.976Z,100362.00
2018-09-30T09:15:01.516Z,100364.00
2018-09-30T09:17:29.984Z,100356.00
2018-09-30T09:19:57.514Z,100352.00
2018-09-30T09:22:25.399Z,100349.00
2018-09-30T09:24:53.186Z,100345.00
2018-09-30T09:27:20.802Z,100340.00
2018-09-30T09:29:48.310Z,100334.00
2018-09-30T09:32:16.216Z,100331.00
2018-09-30T09:34:44.047Z,100325.00
2018-09-30T09:37:11.779Z,100326.00
2018-09-30T09:39:39.278Z,100325.00
2018-09-30T09:42:06.889Z,100320.00
2018-09-30T09:44:34.453Z,100320.00
2018-09-30T09:47:02.195Z,100317.00
2018-09-30T09:49:29.722Z,100312.00
2018-09-30T09:51:57.232Z,100302.00
2018-09-30T09:54:25.072Z,100305.00
2018-09-30T09:56:52.604Z,100308.00
2018-09-30T09:59:20.465Z,100304.00
2018-09-30T10:01:48.066Z,100302.00
2018-09-30T10:04:15.695Z,100303.00
2018-09-30T10:06:44.059Z,100297.00
2018-09-30T10:09:11.606Z,100291.00
2018-09-30T10:11:39.183Z,100287.00
2018-09-30T10:14:06.720Z,100289.00
2018-09-30T10:16:34.281Z,100280.00
2018-09-30T10:19:02.908Z,100268.00
2018-09-30T10:21:30.430Z,100261.00
2018-09-30T10:23:58.454Z,100259.00
2018-09-30T10:26:26.001Z,100251.00
2018-09-30T10:28:53.619Z,100254.00
2018-09-30T10:31:21.224Z,100253.00
2018-09-30T10:33:48.866Z,100250.00
2018-09-30T10:36:16.514Z,100241.00
2018-09-30T10:38:44.547Z,100234.00
2018-09-30T10:41:12.449Z,100222.00
2018-09-30T10:43:40.339Z,100222.00
2018-09-30T10:46:08.551Z,100211.00
2018-09-30T10:48:36.071Z,100207.00
2018-09-30T10:51:03.594Z,100202.00
2018-09-30T10:53:31.234Z,100195.00
2018-09-30T10:55:58.939Z,100185.00
2018-09-30T10:58:26.501Z,100177.00
2018-09-30T11:00:54.362Z,100164.00
2018-09-30T11:03:22.016Z,100155.00
2018-09-30T11:05:49.498Z,100150.00
2018-09-30T11:08:17.506Z,100137.00
2018-09-30T11:10:45.105Z,100135.00
2018-09-30T11:13:12.633Z,100129.00
2018-09-30T11:15:40.500Z,100120.00
2018-09-30T11:18:34.081Z,100123.00
2018-09-30T11:21:22.837Z,100114.00
2018-09-30T11:23:50.355Z,100121.00
2018-09-30T11:26:30.147Z,100106.00
2018-09-30T11:29:41.105Z,100107.00
2018-09-30T11:32:09.970Z,100092.00
2018-09-30T11:34:37.529Z,100093.00
2018-09-30T11:37:05.135Z,100082.00
2018-09-30T11:39:33.113Z,100078.00
2018-09-30T11:42:00.933Z,100079.00
2018-09-30T11:44:28.961Z,100070.00
2018-09-30T11:46:56.744Z,100064.00
2018-09-30T11:49:24.278Z,100054.00
2018-09-30T11:51:52.024Z,100052.00
2018-09-30T11:54:19.610Z,100046.00
2018-09-30T11:56:47.158Z,100044.00
2018-09-30T11:59:14.914Z,100034.00
2018-09-30T12:01:42.426Z,100037.00
2018-09-30T12:04:09.935Z,100021.00
2018-09-30T12:06:37.610Z,100020.00
2018-09-30T12:09:07.254Z,100012.00
2018-09-30T12:11:34.816Z,100002.00
2018-09-30T12:14:02.668Z,99993.00
2018-09-30T12:16:30.274Z,99986.00
2018-09-30T12:18:58.415Z,99982.00
2018-09-30T12:21:27.062Z,99978.00
2018-09-30T12:23:54.602Z,99979.00
2018-09-30T12:26:22.332Z,99987.00
2018-09-30T12:28:49.822Z,99969.00
2018-09-30T12:31:17.377Z,99958.00
2018-09-30T12:33:45.122Z,99954.00
2018-09-30T12:36:12.689Z,99954.00
2018-09-30T12:38:40.182Z,99955.00
2018-09-30T12:41:08.347Z,99949.00
2018-09-30T12:43:35.894Z,99945.00
2018-09-30T12:46:03.410Z,99945.00
2018-09-30T12:48:31.326Z,99946.00
2018-09-30T12:50:58.852Z,99937.00
2018-09-30T12:53:26.395Z,99935.00
2018-09-30T12:55:54.032Z,99931.00
2018-09-30T12:58:21.567Z,99925.00
2018-09-30T13:00:49.098Z,99928.00
2018-09-30T13:03:16.849Z,99918.00
2018-09-30T13:05:44.356Z,99928.00
2018-09-30T13:08:12.154Z,99923.00
2018-09-30T13:10:39.765Z,99916.00
2018-09-30T13:13:07.306Z,99911.00
2018-09-30T13:15:35.154Z,99917.00
2018-09-30T13:18:02.717Z,99910.00
2018-09-30T13:20:30.304Z,99904.00
2018-09-30T13:22:58.305Z,99909.00
2018-09-30T13:25:25.850Z,99912.00
2018-09-30T13:27:53.366Z,99913.00
2018-09-30T13:30:21.238Z,99913.00
2018-09-30T13:32:48.791Z,99914.00
2018-09-30T13:35:16.314Z,99902.00
2018-09-30T13:37:44.265Z,99900.00
2018-09-30T13:40:11.889Z,99895.00
2018-09-30T13:42:39.419Z,99893.00
2018-09-30T13:45:07.904Z,99897.00
2018-09-30T13:47:35.493Z,99891.00
2018-09-30T13:50:03.118Z,99895.00
2018-09-30T13:52:30.894Z,99892.00
2018-09-30T13:54:58.463Z,99891.00
2018-09-30T13:57:25.986Z,99884.00
2018-09-30T13:59:53.687Z,99869.00
2018-09-30T14:02:21.181Z,99866.00
2018-09-30T14:04:48.681Z,99863.00
2018-09-30T14:07:16.891Z,99862.00
2018-09-30T14:09:44.439Z,99860.00
2018-09-30T14:12:11.968Z,99851.00
2018-09-30T14:14:39.718Z,99846.00
2018-09-30T14:17:07.466Z,99853.00
2018-09-30T14:19:35.022Z,99847.00
2018-09-30T14:22:02.570Z,99845.00
2018-09-30T14:24:31.336Z,99844.00
2018-09-30T14:26:58.951Z,99837.00
2018-09-30T14:29:26.527Z,99828.00
2018-09-30T14:31:54.243Z,99828.00
2018-09-30T14:34:21.901Z,99829.00
2018-09-30T14:36:49.378Z,99826.00
2018-09-30T14:39:16.998Z,99828.00
2018-09-30T14:41:44.493Z,99824.00
2018-09-30T14:44:12.182Z,99820.00
2018-09-30T14:46:40.104Z,99826.00
2018-09-30T14:49:08.691Z,99818.00
2018-09-30T14:51:36.277Z,99821.00
2018-09-30T14:54:04.179Z,99817.00
2018-09-30T14:56:31.674Z,99822.00
2018-09-30T14:58:59.581Z,99811.00
2018-09-30T15:01:27.414Z,99810.00
2018-09-30T15:03:55.013Z,99808.00
2018-09-30T15:06:22.521Z,99809.00
2018-09-30T15:08:50.257Z,99812.00
2018-09-30T15:11:17.883Z,99807.00
2018-09-30T15:13:45.748Z,99806.00
2018-09-30T15:16:13.305Z,99803.00
2018-09-30T15:18:40.931Z,99797.00
2018-09-30T15:21:08.905Z,99795.00
2018-09-30T15:23:36.454Z,99789.00
2018-09-30T15:26:11.304Z,99792.00
2018-09-30T15:28:38.991Z,99782.00
2018-09-30T15:31:08.362Z,99778.00
2018-09-30T15:33:36.642Z,99778.00
2018-09-30T15:36:04.145Z,99776.00
2018-09-30T15:38:31.754Z,99780.00
2018-09-30T15:40:59.807Z,99780.00
2018-09-30T15:43:27.382Z,99769.00
2018-09-30T15:45:55.039Z,99777.00
2018-09-30T15:48:22.814Z,99777.00
2018-09-30T15:50:50.478Z,99779.00
2018-09-30T15:53:18.009Z,99777.00
2018-09-30T15:55:45.754Z,99777.00
2018-09-30T15:58:13.293Z,99769.00
2018-09-30T16:00:40.882Z,99764.00
2018-09-30T16:03:09.072Z,99760.00
2018-09-30T16:05:36.660Z,99754.00
2018-09-30T16:08:04.902Z,99758.00
2018-09-30T16:10:33.217Z,99761.00
2018-09-30T16:13:00.799Z,99762.00
2018-09-30T16:15:28.399Z,99760.00
2018-09-30T16:17:56.410Z,99765.00
2018-09-30T16:20:24.017Z,99770.00
2018-09-30T16:22:51.585Z,99771.00
2018-09-30T16:25:19.858Z,99768.00
2018-09-30T16:27:47.560Z,99768.00
2018-09-30T16:30:15.151Z,99771.00
2018-09-30T16:32:42.978Z,99773.00
2018-09-30T16:35:10.759Z,99770.00
2018-09-30T16:37:38.356Z,99767.00
2018-09-30T16:40:06.230Z,99766.00
2018-09-30T16:42:34.179Z,99764.00
2018-09-30T16:45:46.809Z,99765.00
2018-09-30T16:48:14.479Z,99765.00
2018-09-30T16:50:42.144Z,99768.00
2018-09-30T16:53:10.184Z,99774.00
2018-09-30T16:55:37.843Z,99768.00
2018-09-30T16:58:06.050Z,99769.00
2018-09-30T17:00:33.831Z,99773.00
2018-09-30T17:03:01.590Z,99768.00
2018-09-30T17:05:30.024Z,99772.00
2018-09-30T17:07:58.032Z,99780.00
2018-09-30T17:10:25.627Z,99777.00
2018-09-30T17:12:54.396Z,99780.00
2018-09-30T17:15:22.105Z,99776.00
2018-09-30T17:17:49.945Z,99776.00
2018-09-30T17:20:17.459Z,99779.00
2018-09-30T17:22:45.263Z,99781.00
2018-09-30T17:25:12.826Z,99779.00
2018-09-30T17:27:41.290Z,99778.00
2018-09-30T17:30:09.439Z,99786.00
2018-09-30T17:32:37.017Z,99781.00
2018-09-30T17:35:04.898Z,99779.00
2018-09-30T17:37:32.849Z,99779.00
2018-09-30T17:40:00.545Z,99777.00
2018-09-30T17:42:28.135Z,99774.00
2018-09-30T17:44:56.047Z,99775.00
2018-09-30T17:47:23.854Z,99779.00
2018-09-30T17:49:51.465Z,99776.00
2018-09-30T17:52:19.350Z,99777.00
2018-09-30T17:54:46.985Z,99774.00
2018-09-30T17:57:14.609Z,99776.00
2018-09-30T17:59:42.200Z,99777.00
2018-09-30T18:02:09.989Z,99781.00
2018-09-30T18:04:37.818Z,99781.00
2018-09-30T18:07:05.788Z,99782.00
2018-09-30T18:09:33.346Z,99775.00
2018-09-30T18:12:00.886Z,99772.00
2018-09-30T18:14:28.834Z,99771.00
2018-09-30T18:16:56.409Z,99774.00
2018-09-30T18:19:24.125Z,99771.00
2018-09-30T18:21:52.042Z,99768.00
2018-09-30T18:24:19.621Z,99772.00
2018-09-30T18:26:47.679Z,99773.00
2018-09-30T18:29:15.658Z,99775.00
2018-09-30T18:31:43.178Z,99773.00
2018-09-30T18:34:11.884Z,99777.00
2018-09-30T18:36:40.127Z,99774.00
2018-09-30T18:39:09.266Z,99775.00
2018-09-30T18:41:37.715Z,99774.00
2018-09-30T18:44:05.482Z,99770.00
2018-09-30T18:46:33.161Z,99770.00
2018-09-30T18:49:01.026Z,99765.00
2018-09-30T18:51:28.692Z,99762.00
2018-09-30T18:53:56.926Z,99766.00
2018-09-30T18:56:25.471Z,99761.00
2018-09-30T18:58:53.061Z,99758.00
2018-09-30T19:01:20.846Z,99752.00
2018-09-30T19:03:48.483Z,99740.00
2018-09-30T19:06:16.607Z,99740.00
2018-09-30T19:08:44.379Z,99737.00
2018-09-30T19:11:12.087Z,99732.00
2018-09-30T19:13:40.142Z,99731.00
2018-09-30T19:16:08.388Z,99727.00
2018-09-30T19:18:36.778Z,99731.00
2018-09-30T19:21:04.383Z,99729.00
2018-09-30T19:23:31.954Z,99725.00
2018-09-30T19:25:59.886Z,99723.00
2018-09-30T19:28:27.446Z,99718.00
2018-09-30T19:30:55.833Z,99717.00
2018-09-30T19:33:23.783Z,99720.00
2018-09-30T19:35:51.582Z,99710.00
2018-09-30T19:38:19.394Z,99709.00
2018-09-30T19:40:47.273Z,99710.00
2018-09-30T19:43:15.468Z,99709.00
2018-09-30T19:45:43.268Z,99705.00
2018-09-30T19:48:11.402Z,99699.00
2018-09-30T19:50:38.942Z,99693.00
2018-09-30T19:53:06.731Z,99689.00
2018-09-30T19:55:34.863Z,99683.00
2018-09-30T19:58:02.674Z,99686.00
2018-09-30T20:00:30.226Z,99680.00
2018-09-30T20:02:58.587Z,99682.00
2018-09-30T20:05:26.464Z,99680.00
2018-09-30T20:07:54.007Z,99680.00
2018-09-30T20:10:22.052Z,99677.00
2018-09-30T20:12:49.682Z,99674.00
2018-09-30T20:15:17.802Z,99668.00
2018-09-30T20:17:45.922Z,99665.00
2018-09-30T20:20:13.551Z,99664.00
2018-09-30T20:22:41.330Z,99664.00
2018-09-30T20:25:09.077Z,99665.00
2018-09-30T20:27:37.511Z,99660.00
2018-09-30T20:30:04.969Z,99658.00
2018-09-30T20:32:32.485Z,99660.00
2018-09-30T20:35:00.499Z,99660.00
2018-09-30T20:37:28.748Z,99659.00
2018-09-30T20:39:56.331Z,99662.00
2018-09-30T20:42:25.423Z,99658.00
2018-09-30T20:44:53.442Z,99656.00
2018-09-30T20:47:21.248Z,99650.00
2018-09-30T20:49:49.187Z,99645.00
2018-09-30T20:52:16.923Z,99640.00
2018-09-30T20:54:44.789Z,99641.00
2018-09-30T20:57:12.785Z,99641.00
2018-09-30T20:59:40.293Z,99642.00
2018-09-30T21:02:07.866Z,99635.00
2018-09-30T21:04:35.899Z,99635.00
2018-09-30T21:07:03.577Z,99627.00
2018-09-30T21:09:31.157Z,99630.00
2018-09-30T21:11:59.141Z,99623.00
2018-09-30T21:14:26.705Z,99626.00
2018-09-30T21:16:54.221Z,99627.00
2018-09-30T21:19:22.186Z,99625.00
2018-09-30T21:21:49.725Z,99628.00
2018-09-30T21:24:17.272Z,99620.00
2018-09-30T21:26:45.138Z,99620.00
2018-09-30T21:29:12.787Z,99614.00
2018-09-30T21:31:40.704Z,99614.00
2018-09-30T21:34:08.350Z,99610.00
2018-09-30T21:36:35.910Z,99608.00
2018-09-30T21:39:06.115Z,99613.00
2018-09-30T21:41:33.702Z,99609.00
2018-09-30T21:44:01.295Z,99605.00
2018-09-30T21:46:29.218Z,99607.00
2018-09-30T21:48:57.450Z,99600.00
2018-09-30T21:51:25.098Z,99603.00
2018-09-30T21:53:53.105Z,99602.00
2018-09-30T21:56:20.748Z,99601.00
2018-09-30T21:58:48.870Z,99599.00
2018-09-30T22:01:16.512Z,99595.00
2018-09-30T22:03:44.094Z,99587.00
2018-09-30T22:06:11.895Z,99585.00
2018-09-30T22:08:39.442Z,99584.00
2018-09-30T22:11:07.086Z,99582.00
2018-09-30T22:13:34.875Z,99577.00
2018-09-30T22:16:02.434Z,99578.00
2018-09-30T22:18:30.005Z,99582.00
2018-09-30T22:20:57.717Z,99581.00
2018-09-30T22:23:25.318Z,99576.00
2018-09-30T22:25:52.879Z,99577.00
2018-09-30T22:28:20.894Z,99576.00
2018-09-30T22:30:48.486Z,99573.00
2018-09-30T22:33:15.995Z,99572.00
2018-09-30T22:35:44.095Z,99574.00
2018-09-30T22:38:11.689Z,99576.00
2018-09-30T22:40:39.303Z,99578.00
2018-09-30T22:43:07.171Z,99578.00
2018-09-30T22:45:34.730Z,99574.00
2018-09-30T22:48:02.519Z,99570.00
2018-09-30T22:50:30.401Z,99571.00
2018-09-30T22:52:57.939Z,99567.00
2018-09-30T22:55:25.570Z,99565.00
2018-09-30T22:57:53.194Z,99560.00
2018-09-30T23:00:20.758Z,99554.00
2018-09-30T23:02:48.290Z,99552.00
2018-09-30T23:05:16.071Z,99548.00
2018-09-30T23:07:43.598Z,99543.00
2018-09-30T23:10:12.349Z,99543.00
2018-09-30T23:12:40.207Z,99543.00
2018-09-30T23:15:07.802Z,99544.00
2018-09-30T23:17:35.678Z,99541.00
2018-09-30T23:20:03.262Z,99542.00
2018-09-30T23:22:30.850Z,99543.00
2018-09-30T23:24:58.554Z,99538.00
2018-09-30T23:27:26.205Z,99541.00
2018-09-30T23:29:53.796Z,99545.00
2018-09-30T23:32:21.411Z,99541.00
2018-09-30T23:34:48.943Z,99541.00
2018-09-30T23:37:17.118Z,99546.00
2018-09-30T23:39:44.981Z,99549.00
2018-09-30T23:42:12.565Z,99547.00
2018-09-30T23:44:40.208Z,99551.00
2018-09-30T23:47:07.789Z,99551.00
2018-09-30T23:49:35.380Z,99548.00
2018-09-30T23:52:03.012Z,99546.00
2018-09-30T23:54:30.743Z,99548.00
2018-09-30T23:56:58.368Z,99546.00
2018-09-30T23:59:25.938Z,99544.00
